Time;durP1;ratioP1;P1;durP2;ratioP2;P2;SDS_P1;SDS_P2;PMS_P1;PMS_P2;Temp;Humidity;BMP_temperature;BMP_pressure;BME280_temperature;BME280_humidity;BME280_pressure;Samples;Min_cycle;Max_cycle;Signal;HPM_P1;HPM_P2
2021/10/09 00:01:50;;;;;;;;;20.00;19.25;;;;;7.96;37.79;102705.97;5053322;28;11597;-71
2021/10/09 00:04:46;;;;;;;;;24.75;19.75;;;;;7.87;37.71;102715.00;5053479;28;11579;-71
2021/10/09 00:07:41;;;;;;;;;33.50;33.00;;;;;7.89;37.83;102710.88;5053305;28;11576;-71
2021/10/09 00:10:37;;;;;;;;;20.25;19.75;;;;;7.84;37.49;102710.03;5039845;28;11673;-71
2021/10/09 00:13:33;;;;;;;;;15.50;15.50;;;;;7.74;37.55;102706.09;5052734;28;11583;-71
2021/10/09 00:16:29;;;;;;;;;8.25;8.25;;;;;7.83;37.87;102709.19;5045226;28;11592;-71
2021/10/09 00:19:24;;;;;;;;;10.00;10.00;;;;;7.77;37.87;102711.06;5044905;28;12274;-71
2021/10/09 00:22:20;;;;;;;;;10.00;10.00;;;;;7.77;37.91;102710.25;5039051;28;11615;-71
2021/10/09 00:25:16;;;;;;;;;7.50;7.50;;;;;7.76;38.09;102709.41;5033574;28;11596;-71
2021/10/09 00:27:43;;;;;;;;;12.25;12.25;;;;;7.64;38.11;102713.44;5034371;28;11543;-71
2021/10/09 00:30:39;;;;;;;;;11.00;10.75;;;;;7.61;38.17;102712.03;5019724;28;11678;-71
2021/10/09 00:33:34;;;;;;;;;10.75;10.75;;;;;7.62;38.40;102708.19;5019757;28;11546;-71
2021/10/09 00:36:30;;;;;;;;;8.25;8.25;;;;;7.63;38.56;102709.00;5032861;28;12364;-71
2021/10/09 00:39:26;;;;;;;;;10.50;10.25;;;;;7.44;38.47;102695.66;5043348;28;11548;-71
2021/10/09 00:42:22;;;;;;;;;8.25;8.25;;;;;7.49;38.47;102706.69;5039488;28;11541;-71
2021/10/09 00:45:18;;;;;;;;;7.75;7.75;;;;;7.50;38.28;102711.09;5039492;28;11574;-71
2021/10/09 00:48:13;;;;;;;;;6.25;6.00;;;;;7.38;38.95;102710.44;5054299;28;11533;-71
2021/10/09 00:51:09;;;;;;;;;8.25;7.25;;;;;7.55;38.54;102715.81;5052502;28;12313;-71
2021/10/09 00:54:04;;;;;;;;;9.00;6.00;;;;;7.43;38.92;102701.38;5052421;28;11585;-71
2021/10/09 00:57:01;;;;;;;;;9.50;6.50;;;;;7.37;38.65;102711.53;5052238;28;11716;-71
2021/10/09 01:00:01;;;;;;;;;9.25;9.25;;;;;7.38;38.91;102695.84;5033951;28;11616;-71
2021/10/09 01:02:57;;;;;;;;;6.25;6.25;;;;;7.36;39.05;102698.88;5031588;28;11545;-71
2021/10/09 01:05:52;;;;;;;;;6.50;6.50;;;;;7.43;38.85;102699.47;5031666;28;12489;-71
2021/10/09 01:08:48;;;;;;;;;6.00;6.00;;;;;7.34;38.88;102691.94;5038183;28;11613;-71
2021/10/09 01:11:44;;;;;;;;;3.00;3.00;;;;;7.34;38.94;102697.44;5052327;28;11556;-71
2021/10/09 01:14:40;;;;;;;;;7.00;7.00;;;;;7.32;38.85;102699.63;5051646;28;11551;-71
2021/10/09 01:17:35;;;;;;;;;8.00;8.00;;;;;7.47;38.84;102689.59;5052248;28;11657;-70
2021/10/09 01:20:49;;;;;;;;;10.75;10.75;;;;;7.42;39.14;102684.03;5052305;28;11624;-71
2021/10/09 01:23:45;;;;;;;;;10.75;10.75;;;;;7.19;39.28;102698.13;5052117;28;11696;-71
2021/10/09 01:26:42;;;;;;;;;13.25;13.25;;;;;7.30;39.14;102697.16;5039244;28;11533;-71
2021/10/09 01:29:38;;;;;;;;;10.75;8.50;;;;;7.21;39.22;102682.19;5039499;28;11658;-71
2021/10/09 01:32:26;;;;;;;;;10.50;10.50;;;;;7.12;39.51;102686.47;5052649;28;11580;-71
2021/10/09 01:34:53;;;;;;;;;14.25;14.25;;;;;7.16;39.63;102704.16;5052850;28;11644;-71
2021/10/09 01:37:49;;;;;;;;;14.25;12.00;;;;;7.17;39.01;102686.53;5038666;28;11924;-71
2021/10/09 01:40:45;;;;;;;;;12.00;12.00;;;;;7.08;39.39;102699.94;5051826;28;11571;-72
2021/10/09 01:43:41;;;;;;;;;17.50;17.50;;;;;7.17;39.13;102690.13;5051693;28;11576;-71
2021/10/09 01:46:37;;;;;;;;;15.00;15.00;;;;;7.08;39.44;102696.38;5038541;28;11581;-71
2021/10/09 01:49:32;;;;;;;;;11.50;10.25;;;;;6.93;39.42;102694.28;5052436;28;11595;-72
2021/10/09 01:52:28;;;;;;;;;13.75;12.50;;;;;7.16;39.57;102701.41;5051763;28;11550;-71
2021/10/09 01:55:24;;;;;;;;;14.25;14.25;;;;;7.10;39.25;102684.00;5051976;28;11767;-70
2021/10/09 01:58:20;;;;;;;;;15.00;14.50;;;;;6.93;39.63;102695.09;5039142;28;11716;-71
2021/10/09 02:01:16;;;;;;;;;17.75;17.75;;;;;6.88;39.91;102697.78;5051068;28;11627;-71
2021/10/09 02:04:11;;;;;;;;;14.00;13.00;;;;;6.94;39.86;102702.25;5051454;28;11589;-70
2021/10/09 02:07:13;;;;;;;;;14.50;14.00;;;;;6.96;40.12;102697.31;5033115;28;11579;-70
2021/10/09 02:10:12;;;;;;;;;16.00;16.00;;;;;6.91;40.18;102685.44;5043308;28;11005;-70
2021/10/09 02:12:40;;;;;;;;;24.50;20.00;;;;;6.75;40.33;102683.59;5032438;28;11672;-71
2021/10/09 02:16:01;;;;;;;;;13.00;13.00;;;;;6.76;40.03;102688.84;5031355;28;11761;-70
2021/10/09 02:25:38;;;;;;;;;17.00;17.00;;;;;6.79;40.15;102685.56;5051547;28;11584;-70
2021/10/09 02:28:33;;;;;;;;;17.00;16.00;;;;;6.78;40.33;102689.41;5055863;28;11602;-71
2021/10/09 02:31:29;;;;;;;;;14.75;13.25;;;;;6.78;40.36;102694.91;5055108;28;11567;-71
2021/10/09 02:34:25;;;;;;;;;21.50;21.00;;;;;6.76;40.51;102702.59;5041797;28;11636;-70
2021/10/09 02:37:20;;;;;;;;;20.50;18.00;;;;;6.77;40.79;102690.50;5022573;28;11617;-70
2021/10/09 02:40:16;;;;;;;;;18.50;18.50;;;;;6.68;40.30;102698.38;5021945;28;11620;-71
2021/10/09 02:42:44;;;;;;;;;6.75;6.75;;;;;6.58;40.55;102702.91;5036106;28;12461;-71
2021/10/09 02:45:39;;;;;;;;;15.50;14.75;;;;;6.71;40.54;102696.19;5035713;28;11630;-71
2021/10/09 02:48:35;;;;;;;;;9.50;9.50;;;;;6.53;40.69;102680.84;5035057;28;12458;-70
2021/10/09 02:51:30;;;;;;;;;7.25;7.25;;;;;6.43;40.97;102687.03;5034104;28;11679;-70
2021/10/09 02:54:26;;;;;;;;;6.25;6.25;;;;;6.43;40.65;102688.97;5034841;28;11538;-70
2021/10/09 02:57:21;;;;;;;;;9.25;9.25;;;;;6.31;40.92;102686.34;5047855;28;11533;-71
2021/10/09 03:00:19;;;;;;;;;6.75;6.75;;;;;6.27;41.13;102685.16;5054523;28;11571;-71
2021/10/09 03:03:14;;;;;;;;;17.75;17.25;;;;;6.23;41.28;102676.59;5041088;28;11564;-71
2021/10/09 03:06:10;;;;;;;;;11.00;11.00;;;;;6.32;41.26;102669.59;5055004;28;11586;-71
2021/10/09 03:09:06;;;;;;;;;10.25;10.25;;;;;6.23;41.26;102662.88;5041191;28;11543;-71
2021/10/09 03:12:02;;;;;;;;;9.50;9.50;;;;;6.27;41.41;102665.94;5055981;28;11539;-69
2021/10/09 03:14:58;;;;;;;;;7.25;7.25;;;;;6.17;41.49;102674.03;5054315;28;11575;-71
2021/10/09 03:17:54;;;;;;;;;3.00;3.00;;;;;6.21;41.60;102669.69;5042577;28;11526;-69
2021/10/09 03:20:49;;;;;;;;;2.50;2.50;;;;;6.17;41.77;102658.38;5054153;28;11513;-68
2021/10/09 03:23:45;;;;;;;;;6.25;6.25;;;;;6.08;41.69;102673.66;5040881;28;11510;-68
2021/10/09 03:26:13;;;;;;;;;6.00;6.00;;;;;6.07;41.76;102670.06;5055225;28;11542;-71
2021/10/09 03:29:09;;;;;;;;;5.25;5.25;;;;;6.05;41.67;102676.88;5040800;28;11591;-69
2021/10/09 03:32:05;;;;;;;;;6.50;6.50;;;;;6.08;41.74;102670.91;5053883;28;11527;-68
2021/10/09 03:35:00;;;;;;;;;10.00;10.00;;;;;6.09;41.55;102664.31;5041951;28;11561;-68
2021/10/09 03:37:28;;;;;;;;;13.75;12.50;;;;;6.04;41.94;102669.72;5054255;28;11552;-71
2021/10/09 03:40:25;;;;;;;;;8.50;8.50;;;;;6.00;41.88;102682.31;5053918;28;11563;-70
2021/10/09 03:43:23;;;;;;;;;7.00;7.00;;;;;6.05;41.94;102671.38;5053885;28;12262;-69
2021/10/09 03:46:24;;;;;;;;;11.50;7.50;;;;;6.01;41.81;102670.25;5053679;28;12338;-69
2021/10/09 03:49:41;;;;;;;;;20.00;13.50;;;;;6.11;41.97;102671.22;5040475;28;11642;-69
2021/10/09 03:52:38;;;;;;;;;9.00;9.00;;;;;6.04;42.39;102667.81;5054260;28;11612;-69
2021/10/09 03:55:09;;;;;;;;;19.75;14.50;;;;;6.12;42.36;102661.88;5036066;28;11517;-68
2021/10/09 03:58:04;;;;;;;;;13.75;13.75;;;;;6.02;42.45;102669.16;5049793;28;11561;-69
2021/10/09 04:01:00;;;;;;;;;15.75;15.00;;;;;6.07;42.51;102672.81;5039320;28;11616;-69
2021/10/09 04:03:56;;;;;;;;;17.75;17.50;;;;;6.04;42.21;102673.31;5052767;28;11568;-68
2021/10/09 04:06:51;;;;;;;;;20.25;19.75;;;;;6.16;42.56;102688.88;5052170;28;12276;-68
2021/10/09 04:09:47;;;;;;;;;23.00;23.00;;;;;6.12;42.44;102683.03;5053352;28;11592;-70
2021/10/09 04:12:43;;;;;;;;;17.25;17.25;;;;;6.00;42.62;102685.06;5033242;28;11583;-69
2021/10/09 04:15:39;;;;;;;;;13.25;12.50;;;;;6.03;42.96;102688.13;5020097;28;11617;-69
2021/10/09 04:18:34;;;;;;;;;21.25;20.25;;;;;6.05;42.97;102691.44;5030997;28;11600;-69
2021/10/09 04:21:02;;;;;;;;;24.50;21.75;;;;;6.15;42.81;102690.78;5053975;28;11686;-69
2021/10/09 04:23:58;;;;;;;;;12.75;12.75;;;;;6.26;42.42;102698.06;5053488;28;12354;-70
2021/10/09 04:26:54;;;;;;;;;8.50;7.50;;;;;6.27;42.65;102691.50;5048363;28;11599;-69
2021/10/09 04:29:50;;;;;;;;;13.00;13.00;;;;;6.08;42.51;102692.88;5033179;28;11617;-69
2021/10/09 04:32:45;;;;;;;;;14.00;11.00;;;;;6.10;42.79;102697.03;5032979;28;11571;-70
2021/10/09 04:35:41;;;;;;;;;13.25;13.25;;;;;6.18;42.62;102684.78;5020355;28;11655;-70
2021/10/09 04:38:36;;;;;;;;;20.00;17.50;;;;;6.20;43.31;102668.84;5019606;28;11633;-69
2021/10/09 04:41:32;;;;;;;;;13.75;13.75;;;;;6.30;42.93;102680.00;5032612;28;11689;-69
2021/10/09 04:44:27;;;;;;;;;16.00;14.50;;;;;6.29;42.83;102681.09;5032910;28;11586;-69
2021/10/09 04:47:23;;;;;;;;;10.00;10.00;;;;;6.37;43.30;102686.16;5046321;28;11723;-69
2021/10/09 04:50:19;;;;;;;;;12.75;12.75;;;;;6.36;42.87;102683.63;5052851;28;11588;-70
2021/10/09 04:52:46;;;;;;;;;10.00;10.00;;;;;6.46;42.98;102686.53;5053439;28;11588;-69
2021/10/09 04:55:42;;;;;;;;;10.00;10.00;;;;;6.44;42.93;102685.97;5052190;28;11596;-69
2021/10/09 04:58:37;;;;;;;;;9.00;9.00;;;;;6.38;42.95;102687.00;5032913;28;11580;-70
2021/10/09 05:01:33;;;;;;;;;6.00;6.00;;;;;6.36;43.01;102692.75;5052225;28;11521;-69
2021/10/09 05:04:28;;;;;;;;;9.00;9.00;;;;;6.33;43.11;102690.47;5052655;28;12261;-70
2021/10/09 05:07:24;;;;;;;;;10.75;9.25;;;;;6.41;43.19;102690.03;5052202;28;11590;-69
2021/10/09 05:10:19;;;;;;;;;16.50;14.00;;;;;6.34;43.46;102689.41;5032661;28;11612;-71
2021/10/09 05:13:15;;;;;;;;;9.25;9.25;;;;;6.31;43.12;102698.16;5052194;28;11558;-71
2021/10/09 05:16:11;;;;;;;;;21.00;18.75;;;;;6.44;43.03;102685.97;5052898;28;11562;-71
2021/10/09 05:19:06;;;;;;;;;20.00;19.75;;;;;6.40;43.13;102684.81;5051510;28;11580;-71
2021/10/09 05:21:37;;;;;;;;;14.75;14.75;;;;;6.42;43.46;102693.63;5052330;28;11576;-71
2021/10/09 05:24:33;;;;;;;;;10.25;10.25;;;;;6.36;43.32;102678.13;5051630;28;11588;-71
2021/10/09 05:27:30;;;;;;;;;8.00;8.00;;;;;6.50;43.22;102692.34;5051557;28;11520;-71
2021/10/09 05:30:26;;;;;;;;;9.50;7.25;;;;;6.48;43.20;102678.03;5051907;28;11578;-71
2021/10/09 05:33:36;;;;;;;;;10.75;9.50;;;;;6.41;43.14;102691.97;5051809;28;11653;-71
2021/10/09 05:36:32;;;;;;;;;11.25;11.25;;;;;6.47;43.18;102688.19;5039850;28;12462;-70
2021/10/09 05:39:28;;;;;;;;;15.50;15.50;;;;;6.68;43.86;102690.13;5038887;28;11518;-70
2021/10/09 05:42:23;;;;;;;;;14.50;14.50;;;;;6.85;42.73;102684.56;5051774;28;11601;-70
2021/10/09 05:45:19;;;;;;;;;26.75;21.75;;;;;6.92;42.44;102682.44;5039667;28;12303;-70
2021/10/09 05:48:15;;;;;;;;;15.00;15.00;;;;;6.93;42.53;102683.25;5051685;28;12363;-70
2021/10/09 05:54:12;;;;;;;;;15.75;15.00;;;;;7.06;42.33;102682.03;5050467;28;11602;-70
2021/10/09 05:56:49;;;;;;;;;19.00;18.25;;;;;7.13;42.29;102677.13;5051513;28;11629;-70
2021/10/09 06:32:29;;;;;;;;;19.50;17.25;;;;;8.86;39.22;102697.69;5031443;28;11519;-71
2021/10/09 06:45:06;;;;;;;;;17.50;17.50;;;;;9.28;39.03;102691.16;5054856;28;11597;-71
2021/10/09 07:01:11;;;;;;;;;17.25;16.50;;;;;9.96;37.42;102675.97;5044800;28;11507;-70
2021/10/09 07:04:07;;;;;;;;;22.75;17.50;;;;;10.14;37.93;102666.28;5054716;28;11519;-71
2021/10/09 07:07:05;;;;;;;;;19.25;19.25;;;;;10.09;37.36;102674.56;5054484;28;11527;-71
2021/10/09 07:10:02;;;;;;;;;20.00;19.75;;;;;10.27;37.23;102671.28;5054362;28;12365;-71
2021/10/09 07:12:30;;;;;;;;;24.00;20.00;;;;;10.61;36.77;102662.28;5054203;28;11632;-71
2021/10/09 07:15:26;;;;;;;;;26.25;26.25;;;;;10.55;36.11;102666.19;5054321;28;11529;-71
2021/10/09 07:18:22;;;;;;;;;17.00;16.25;;;;;10.72;36.11;102665.81;5040771;28;12356;-71
2021/10/09 07:21:11;;;;;;;;;24.25;23.75;;;;;10.78;35.82;102665.53;5040753;28;11536;-70
2021/10/09 07:24:07;;;;;;;;;32.00;32.00;;;;;10.82;35.72;102657.50;5044402;28;11515;-70
2021/10/09 07:26:38;;;;;;;;;24.25;24.25;;;;;10.94;35.16;102682.88;5075149;28;12438;-71
2021/10/09 07:29:08;;;;;;;;;30.50;26.75;;;;;11.45;35.14;102668.72;5075078;28;11533;-70
2021/10/09 07:32:04;;;;;;;;;20.00;20.00;;;;;11.48;34.24;102673.66;5054771;28;11531;-70
2021/10/09 07:35:00;;;;;;;;;20.50;18.75;;;;;11.77;34.55;102665.38;5055443;28;11527;-70
2021/10/09 07:37:28;;;;;;;;;20.50;18.00;;;;;11.88;33.70;102660.59;5053898;28;12352;-71
2021/10/09 07:40:24;;;;;;;;;22.25;21.25;;;;;11.92;33.00;102664.44;5053751;28;11140;-71
2021/10/09 07:42:51;;;;;;;;;21.75;18.75;;;;;12.00;32.92;102663.00;5037125;28;11540;-71
2021/10/09 07:45:40;;;;;;;;;17.25;16.75;;;;;12.30;32.73;102664.63;5054065;28;11634;-71
2021/10/09 07:48:36;;;;;;;;;25.00;21.00;;;;;12.32;32.56;102660.41;5040145;28;11202;-71
2021/10/09 07:51:32;;;;;;;;;17.25;16.75;;;;;12.71;32.19;102670.50;5055217;28;11320;-71
2021/10/09 07:54:27;;;;;;;;;16.50;16.00;;;;;12.47;31.80;102657.47;5053854;28;11784;-71
2021/10/09 07:56:55;;;;;;;;;14.00;14.00;;;;;12.78;31.89;102665.41;5054353;28;12103;-72
2021/10/09 07:59:50;;;;;;;;;14.50;13.50;;;;;12.87;31.19;102662.78;5023647;28;10929;-72
2021/10/09 08:02:50;;;;;;;;;15.00;12.00;;;;;13.07;31.42;102657.78;5039647;28;10855;-71
2021/10/09 08:05:49;;;;;;;;;16.50;15.25;;;;;13.50;30.76;102654.94;5045997;28;10721;-72
2021/10/09 08:08:44;;;;;;;;;25.50;25.25;;;;;13.26;30.22;102648.63;5054477;28;10780;-70
2021/10/09 08:11:40;;;;;;;;;17.75;17.75;;;;;13.58;30.13;102656.19;5040063;28;10977;-72
2021/10/09 08:14:36;;;;;;;;;20.75;20.00;;;;;13.63;30.29;102658.88;5039254;28;10880;-72
2021/10/09 08:17:04;;;;;;;;;24.25;22.25;;;;;13.58;29.59;102645.06;5054228;28;10830;-73
2021/10/09 08:19:35;;;;;;;;;20.00;19.25;;;;;13.95;29.79;102644.09;5054255;28;10779;-71
2021/10/09 08:22:34;;;;;;;;;10.75;10.00;;;;;13.78;29.24;102649.44;5052413;28;10707;-73
2021/10/09 08:36:13;;;;;;;;;29.00;26.75;;;;;14.69;28.41;102650.47;5054105;28;10274;-72
2021/10/09 08:38:50;;;;;;;;;20.00;20.00;;;;;14.44;28.26;102653.75;5053678;28;10695;-72
2021/10/09 08:41:20;;;;;;;;;24.75;22.00;;;;;14.72;27.97;102649.84;5053676;28;10504;-72
2021/10/09 08:43:51;;;;;;;;;27.25;25.75;;;;;14.91;27.81;102641.34;5053537;28;10478;-73
2021/10/09 08:46:20;;;;;;;;;24.25;21.50;;;;;14.61;27.48;102648.41;5053636;28;10617;-73
2021/10/09 08:48:52;;;;;;;;;16.00;16.00;;;;;15.13;27.83;102660.06;5053773;28;10320;-73
2021/10/09 08:51:25;;;;;;;;;15.00;15.00;;;;;15.11;27.10;102658.75;5053570;28;10935;-73
2021/10/09 08:54:03;;;;;;;;;17.25;16.00;;;;;15.33;26.95;102666.28;5053593;28;10109;-73
2021/10/09 08:56:41;;;;;;;;;25.50;24.00;;;;;15.52;26.93;102655.78;5036343;28;10169;-74
2021/10/09 08:59:14;;;;;;;;;23.25;23.25;;;;;15.88;26.02;102671.66;5053390;28;10260;-74
2021/10/09 09:01:54;;;;;;;;;15.25;15.00;;;;;15.54;26.15;102673.84;5035942;28;9910;-72
2021/10/09 09:04:51;;;;;;;;;16.00;16.00;;;;;15.46;26.43;102665.41;5053370;28;9985;-75
2021/10/09 09:27:15;;;;;;;;;34.25;31.50;;;;;14.60;26.15;102632.00;5053006;28;10362;-72
2021/10/09 09:33:23;;;;;;;;;31.75;30.25;;;;;14.52;26.51;102619.66;5053037;28;11035;-72
2021/10/09 09:35:50;;;;;;;;;47.25;37.00;;;;;14.31;26.18;102613.63;5045003;28;11511;-73
2021/10/09 09:38:54;;;;;;;;;21.50;20.75;;;;;14.52;25.94;102622.44;5035506;28;10914;-72
2021/10/09 09:41:20;;;;;;;;;24.50;23.50;;;;;14.69;26.12;102616.22;5052492;28;10676;-72
2021/10/09 09:43:51;;;;;;;;;28.50;26.00;;;;;14.62;25.58;102616.63;5052706;28;10526;-72
2021/10/09 09:46:23;;;;;;;;;28.75;28.25;;;;;14.05;25.59;102627.25;5035492;28;10790;-72
2021/10/09 09:48:51;;;;;;;;;24.00;23.25;;;;;14.17;25.97;102616.41;5052965;28;10758;-72
2021/10/09 09:51:21;;;;;;;;;22.25;20.50;;;;;14.12;25.85;102610.97;5052916;28;10644;-73
2021/10/09 09:53:50;;;;;;;;;27.00;26.75;;;;;13.91;26.13;102618.06;5035234;28;10635;-73
2021/10/09 09:56:18;;;;;;;;;29.50;26.25;;;;;14.23;26.19;102619.94;5052533;28;10609;-73
2021/10/09 09:58:58;;;;;;;;;22.00;21.00;;;;;14.23;25.37;102624.66;5052816;28;10767;-74
2021/10/09 10:01:31;;;;;;;;;23.25;22.25;;;;;14.16;25.50;102622.28;5052453;28;10718;-73
2021/10/09 10:04:01;;;;;;;;;30.75;28.75;;;;;14.04;25.57;102614.47;5035390;28;10447;-73
2021/10/09 10:06:29;;;;;;;;;29.25;27.00;;;;;14.30;25.65;102623.13;5052553;28;10663;-73
2021/10/09 10:08:58;;;;;;;;;36.75;29.25;;;;;14.32;25.12;102622.81;5068021;28;10878;-73
2021/10/09 10:11:26;;;;;;;;;27.25;24.25;;;;;14.21;25.45;102613.84;5035010;28;10708;-72
2021/10/09 10:13:56;;;;;;;;;27.25;27.25;;;;;14.07;24.66;102613.03;5052630;28;11197;-73
2021/10/09 10:16:24;;;;;;;;;27.75;27.75;;;;;14.08;24.94;102612.72;5052470;28;10622;-72
2021/10/09 10:18:54;;;;;;;;;18.00;17.75;;;;;13.83;24.62;102624.31;5052242;28;10741;-73
2021/10/09 10:21:31;;;;;;;;;26.00;25.00;;;;;13.91;25.46;102606.94;5052342;28;10764;-73
2021/10/09 10:24:00;;;;;;;;;25.00;25.00;;;;;13.93;25.29;102610.22;5052553;28;10799;-73
2021/10/09 10:26:32;;;;;;;;;24.75;24.75;;;;;14.05;25.01;102601.38;5035405;28;10968;-73
2021/10/09 10:29:02;;;;;;;;;18.25;18.25;;;;;13.98;24.50;102598.19;5052549;28;10870;-73
2021/10/09 10:31:34;;;;;;;;;20.75;20.75;;;;;13.90;24.43;102586.63;5052366;28;10662;-74
2021/10/09 10:34:23;;;;;;;;;23.75;22.50;;;;;14.11;24.10;102584.28;5052365;28;10595;-73
2021/10/09 10:36:51;;;;;;;;;21.50;19.50;;;;;14.13;23.69;102582.00;5052507;28;10744;-72
2021/10/09 10:39:26;;;;;;;;;22.00;20.50;;;;;14.29;23.90;102579.72;5052423;28;10803;-73
2021/10/09 10:44:58;;;;;;;;;20.75;20.75;;;;;14.63;23.44;102584.84;5052473;28;10943;-73
2021/10/09 10:51:05;;;;;;;;;28.00;26.00;;;;;14.57;23.09;102582.50;5055908;28;10796;-73
2021/10/09 10:57:04;;;;;;;;;21.25;21.25;;;;;14.40;22.99;102572.81;5049741;28;10814;-73
2021/10/09 10:59:46;;;;;;;;;24.75;23.00;;;;;14.42;23.03;102564.16;5055842;28;10298;-73
2021/10/09 11:02:18;;;;;;;;;31.25;27.00;;;;;14.22;22.30;102567.38;5037849;28;10684;-74
2021/10/09 11:05:01;;;;;;;;;31.00;29.00;;;;;14.27;22.19;102573.66;5055482;28;10699;-74
2021/10/09 11:07:34;;;;;;;;;37.00;34.75;;;;;14.19;22.24;102566.88;5037954;28;10853;-73
2021/10/09 11:10:17;;;;;;;;;38.00;36.00;;;;;14.18;22.18;102569.94;5055491;28;11014;-72
2021/10/09 11:12:49;;;;;;;;;33.00;33.00;;;;;14.23;22.14;102574.56;5055018;28;11085;-73
2021/10/09 11:15:22;;;;;;;;;36.00;32.50;;;;;14.30;22.32;102575.81;5055610;28;11180;-72
2021/10/09 11:18:02;;;;;;;;;38.00;34.50;;;;;14.27;22.28;102573.66;5055587;28;11804;-72
2021/10/09 11:20:35;;;;;;;;;36.00;34.75;;;;;14.27;22.24;102582.00;5055399;28;11078;-72
2021/10/09 11:23:08;;;;;;;;;48.00;38.75;;;;;14.45;22.15;102586.66;5055329;28;12035;-73
2021/10/09 11:25:42;;;;;;;;;41.50;36.75;;;;;14.38;22.20;102579.81;5055075;28;12292;-73
2021/10/09 11:28:28;;;;;;;;;33.50;31.50;;;;;14.39;21.94;102579.50;5037228;28;12108;-73
2021/10/09 11:30:56;;;;;;;;;24.00;23.50;;;;;14.26;21.18;102573.94;5037480;28;11006;-73
2021/10/09 11:33:28;;;;;;;;;34.25;30.50;;;;;14.55;21.93;102565.28;5037722;28;10871;-73
2021/10/09 11:35:56;;;;;;;;;31.50;31.50;;;;;14.33;21.68;102564.03;5037562;28;11781;-74
2021/10/09 11:38:28;;;;;;;;;36.25;32.50;;;;;14.26;21.66;102557.25;5055142;28;10950;-74
2021/10/09 11:41:05;;;;;;;;;29.00;28.75;;;;;14.29;21.75;102557.47;5037063;28;10776;-74
2021/10/09 11:55:46;;;;;;;;;31.50;30.75;;;;;14.41;21.07;102537.44;5048010;28;10911;-69
2021/10/09 11:58:53;;;;;;;;;48.00;41.00;;;;;14.55;21.63;102552.19;5050260;28;11692;-69
2021/10/09 12:01:51;;;;;;;;;42.00;37.50;;;;;14.57;21.04;102558.28;5036863;28;11567;-68
2021/10/09 12:04:58;;;;;;;;;46.50;39.00;;;;;14.51;21.19;102548.41;5049761;28;11572;-68
2021/10/09 12:07:28;;;;;;;;;39.75;37.25;;;;;14.45;21.26;102541.25;5051001;28;11159;-69
2021/10/09 12:10:24;;;;;;;;;49.25;42.75;;;;;14.61;21.42;102537.00;5051189;28;11336;-67
2021/10/09 12:13:20;;;;;;;;;49.50;42.00;;;;;14.73;21.05;102539.25;5052172;28;11513;-68
2021/10/09 12:16:21;;;;;;;;;58.75;48.75;;;;;14.78;20.86;102543.88;5052449;28;12399;-69
2021/10/09 12:19:27;;;;;;;;;44.75;38.75;;;;;14.89;20.80;102543.34;5051080;28;11519;-69
2021/10/09 12:22:24;;;;;;;;;49.25;39.50;;;;;14.82;20.71;102539.34;5047155;28;12094;-68
2021/10/09 12:25:26;;;;;;;;;48.25;41.00;;;;;14.85;20.65;102547.03;5051435;28;10897;-69
2021/10/09 12:28:22;;;;;;;;;63.75;52.50;;;;;14.89;20.49;102548.06;5035481;28;11566;-69
2021/10/09 12:31:31;;;;;;;;;57.50;49.00;;;;;15.05;21.05;102541.00;5053204;28;11559;-68
2021/10/09 12:34:35;;;;;;;;;51.50;44.00;;;;;15.09;20.19;102557.88;5034658;28;11565;-68
2021/10/09 12:37:22;;;;;;;;;40.50;36.50;;;;;14.93;20.59;102549.91;5028878;28;11570;-69
2021/10/09 12:40:09;;;;;;;;;14.25;10.00;;;;;14.99;20.84;102547.81;5033849;28;11040;-68
2021/10/09 12:43:10;;;;;;;;;40.00;36.25;;;;;15.12;20.97;102555.31;5051389;28;10730;-69
2021/10/09 12:45:41;;;;;;;;;36.75;34.00;;;;;14.97;20.81;102552.91;5048022;28;11111;-70
2021/10/09 12:48:31;;;;;;;;;52.00;44.00;;;;;14.65;20.75;102548.38;5049831;28;10883;-69
2021/10/09 12:50:58;;;;;;;;;51.00;43.00;;;;;14.95;20.89;102546.78;5048354;28;12314;-70
2021/10/09 12:53:26;;;;;;;;;52.50;43.75;;;;;14.85;21.22;102553.44;5032774;28;12102;-70
2021/10/09 12:56:22;;;;;;;;;34.00;33.50;;;;;14.96;20.83;102548.47;5050845;28;11528;-69
2021/10/09 12:59:04;;;;;;;;;32.25;32.25;;;;;14.85;20.85;102547.88;5049438;28;11530;-68
2021/10/09 13:01:59;;;;;;;;;40.75;36.25;;;;;14.79;20.98;102551.91;5038484;28;10740;-69
2021/10/09 13:04:55;;;;;;;;;43.75;37.50;;;;;14.90;21.20;102550.53;5051631;28;10924;-69
2021/10/09 13:07:52;;;;;;;;;48.75;39.00;;;;;14.87;21.66;102539.19;5051266;28;11023;-69
2021/10/09 13:10:49;;;;;;;;;39.00;34.50;;;;;15.01;21.35;102540.78;5032059;28;10990;-69
2021/10/09 13:13:45;;;;;;;;;39.50;34.25;;;;;14.86;21.49;102540.34;5057072;28;11005;-69
2021/10/09 13:16:41;;;;;;;;;31.75;29.75;;;;;14.89;21.55;102532.19;5050198;28;10950;-69
2021/10/09 13:19:10;;;;;;;;;27.75;26.25;;;;;14.75;20.67;102534.19;5035562;28;10420;-69
2021/10/09 13:22:05;;;;;;;;;38.00;35.50;;;;;15.07;21.44;102540.66;5053082;28;10805;-69
2021/10/09 13:24:35;;;;;;;;;38.50;35.00;;;;;15.06;21.47;102534.28;5035257;28;10629;-69
2021/10/09 13:27:03;;;;;;;;;38.75;35.50;;;;;15.04;21.94;102538.53;5053041;28;10682;-69
2021/10/09 13:29:31;;;;;;;;;50.00;40.25;;;;;14.90;21.46;102533.81;5052932;28;11466;-69
2021/10/09 13:31:58;;;;;;;;;38.00;35.25;;;;;15.07;21.96;102535.09;5052668;28;11167;-69
2021/10/09 13:34:26;;;;;;;;;37.75;33.25;;;;;14.95;21.76;102530.06;5053049;28;11112;-69
2021/10/09 13:36:54;;;;;;;;;28.75;23.75;;;;;14.94;21.98;102532.03;5044538;28;11031;-69
2021/10/09 13:39:21;;;;;;;;;28.50;28.50;;;;;15.00;21.49;102535.53;5042858;28;11774;-69
2021/10/09 13:41:49;;;;;;;;;34.50;33.00;;;;;14.99;21.96;102539.47;5052386;28;10843;-69
2021/10/09 13:44:17;;;;;;;;;33.00;33.00;;;;;15.06;21.55;102541.81;5052793;28;10587;-69
2021/10/09 13:46:44;;;;;;;;;44.50;36.25;;;;;14.96;22.20;102540.09;5035127;28;10688;-69
2021/10/09 13:49:27;;;;;;;;;42.25;38.50;;;;;14.83;21.91;102540.97;5045696;28;10971;-68
2021/10/09 13:52:22;;;;;;;;;45.50;39.25;;;;;14.83;21.96;102544.59;5044730;28;11845;-68
2021/10/09 13:55:11;;;;;;;;;29.75;28.25;;;;;14.91;22.32;102557.75;5049737;28;11350;-68
2021/10/09 13:57:39;;;;;;;;;32.25;30.50;;;;;14.90;21.70;102552.50;5052409;28;11816;-68
2021/10/09 14:00:37;;;;;;;;;34.75;33.00;;;;;14.89;22.31;102560.03;5053660;28;10842;-68
2021/10/09 14:03:35;;;;;;;;;19.25;15.50;;;;;14.59;21.93;102544.88;5051469;28;11017;-69
2021/10/09 14:06:30;;;;;;;;;37.75;35.00;;;;;14.61;22.82;102550.13;5050075;28;10756;-69
2021/10/09 14:09:26;;;;;;;;;35.50;33.50;;;;;14.62;22.17;102540.63;5031749;28;11003;-69
2021/10/09 14:11:54;;;;;;;;;37.00;32.75;;;;;14.53;22.03;102553.66;5032738;28;11762;-69
2021/10/09 14:14:50;;;;;;;;;35.25;33.75;;;;;14.64;22.08;102538.34;5034680;28;10911;-69
2021/10/09 14:17:46;;;;;;;;;34.25;32.00;;;;;14.51;22.01;102536.44;5049391;28;11864;-68
2021/10/09 14:20:48;;;;;;;;;41.50;35.50;;;;;14.55;22.27;102551.34;5031486;28;11123;-68
2021/10/09 14:23:43;;;;;;;;;41.50;37.25;;;;;14.50;22.19;102549.53;5036175;28;10967;-69
2021/10/09 14:26:11;;;;;;;;;35.75;33.75;;;;;14.56;22.40;102541.88;5038311;28;11142;-70
2021/10/09 14:29:07;;;;;;;;;36.00;34.75;;;;;14.67;22.88;102537.72;5049460;28;10949;-69
2021/10/09 14:32:03;;;;;;;;;44.50;39.00;;;;;14.62;22.48;102548.97;5040815;28;10823;-68
2021/10/09 14:34:59;;;;;;;;;56.00;44.50;;;;;14.63;22.40;102537.50;5051465;28;11582;-69
2021/10/09 14:37:27;;;;;;;;;59.25;47.75;;;;;14.70;23.18;102531.53;5038529;28;11564;-70
2021/10/09 14:39:55;;;;;;;;;59.25;49.25;;;;;14.72;22.42;102534.81;5055290;28;11670;-68
2021/10/09 14:42:51;;;;;;;;;62.00;48.25;;;;;14.64;22.29;102535.56;5054170;28;11695;-69
2021/10/09 14:45:49;;;;;;;;;55.50;45.00;;;;;14.58;21.73;102532.09;5054285;28;11575;-69
2021/10/09 14:48:38;;;;;;;;;57.00;46.00;;;;;14.55;21.94;102531.88;5042822;28;11585;-66